createdAt,value
2019-04-22T00:03:09.000Z,67.64
2019-04-22T00:08:31.279Z,67.41
2019-04-22T00:13:32.400Z,70.56
2019-04-22T00:23:23.471Z,70.71
2019-04-22T00:33:31.293Z,72.37
2019-04-22T00:53:32.404Z,74.79
2019-04-22T00:58:30.741Z,75.14
2019-04-22T01:03:40.471Z,75.85
2019-04-22T01:13:24.739Z,76.35
2019-04-22T01:18:29.289Z,76.59
2019-04-22T01:23:23.748Z,77.58
2019-04-22T01:28:21.848Z,78.01
2019-04-22T01:38:22.335Z,77.76
2019-04-22T01:48:19.382Z,77.54
2019-04-22T01:58:20.432Z,79.30
2019-04-22T02:03:25.728Z,79.92
2019-04-22T02:13:23.749Z,81.51
2019-04-22T02:28:33.714Z,80.57
2019-04-22T02:38:48.905Z,80.71
2019-04-22T02:43:26.116Z,81.34
2019-04-22T02:53:45.037Z,80.96
2019-04-22T03:13:21.667Z,82.71
2019-04-22T03:23:34.154Z,84.28
2019-04-22T03:28:29.165Z,84.99
2019-04-22T03:33:39.940Z,84.58
2019-04-22T03:43:23.935Z,85.35
2019-04-22T03:48:07.914Z,85.73
2019-04-22T03:53:21.252Z,85.72
2019-04-22T03:58:21.168Z,85.34
2019-04-22T04:08:26.331Z,85.29
2019-04-22T04:13:08.237Z,85.71
2019-04-22T04:18:13.448Z,86.30
2019-04-22T04:23:30.997Z,85.82
2019-04-22T04:33:08.896Z,85.35
2019-04-22T04:38:05.106Z,85.91
2019-04-22T04:43:19.001Z,86.82
2019-04-22T04:53:23.121Z,86.45
2019-04-22T05:03:13.117Z,87.15
2019-04-22T05:08:33.459Z,87.07
2019-04-22T05:13:01.899Z,86.50
2019-04-22T05:23:22.075Z,85.30
2019-04-22T05:28:10.431Z,83.57
2019-04-22T05:33:09.305Z,82.94
2019-04-22T05:43:01.880Z,75.57
2019-04-22T05:53:07.076Z,65.33
2019-04-22T06:13:04.440Z,61.69
2019-04-22T06:18:20.486Z,56.78
2019-04-22T06:23:14.369Z,56.39
2019-04-22T06:28:23.595Z,59.27
2019-04-22T06:38:24.588Z,52.41
2019-04-22T06:48:13.589Z,49.52
2019-04-22T06:58:10.361Z,50.54
2019-04-22T07:03:23.375Z,50.70
2019-04-22T07:13:10.739Z,50.10
2019-04-22T07:18:11.484Z,52.18
2019-04-22T07:23:08.286Z,51.01
2019-04-22T07:28:05.164Z,53.36
2019-04-22T07:33:11.432Z,53.55
2019-04-22T07:38:10.775Z,50.36
2019-04-22T07:43:14.927Z,51.13
2019-04-22T07:48:15.235Z,48.08
2019-04-22T07:53:08.470Z,52.90
2019-04-22T07:58:05.388Z,46.74
2019-04-22T08:03:06.717Z,45.50
2019-04-22T08:08:07.191Z,44.26
2019-04-22T08:12:58.058Z,43.03
2019-04-22T08:18:12.802Z,35.95
2019-04-22T08:23:04.793Z,36.32
2019-04-22T08:38:02.569Z,26.15
2019-04-22T08:43:05.567Z,25.90
2019-04-22T08:53:05.919Z,26.24
2019-04-22T09:07:58.744Z,26.18
2019-04-22T09:17:47.318Z,21.74
2019-04-22T09:23:02.674Z,23.81
2019-04-22T09:27:59.442Z,24.78
2019-04-22T09:33:02.853Z,22.56
2019-04-22T09:42:56.133Z,23.98
2019-04-22T09:48:00.940Z,27.70
2019-04-22T10:12:43.204Z,22.52
2019-04-22T10:27:53.639Z,21.27
2019-04-22T10:37:30.106Z,23.57
2019-04-22T10:47:29.825Z,21.76
2019-04-22T10:52:29.573Z,26.90
2019-04-22T10:57:27.670Z,24.77
2019-04-22T11:02:27.692Z,23.92
2019-04-22T11:07:37.345Z,26.10
2019-04-22T11:12:28.504Z,22.53
2019-04-22T11:17:26.294Z,24.94
2019-04-22T11:22:31.236Z,24.50
2019-04-22T11:27:26.196Z,25.92
2019-04-22T11:32:26.470Z,25.09
2019-04-22T11:37:24.900Z,24.33
2019-04-22T11:42:24.132Z,22.66
2019-04-22T11:47:25.441Z,26.27
2019-04-22T11:52:24.582Z,27.78
2019-04-22T11:57:23.439Z,25.47
2019-04-22T12:02:23.396Z,31.98
2019-04-22T12:07:21.352Z,28.18
2019-04-22T12:12:21.606Z,28.89
2019-04-22T12:22:21.203Z,30.14
2019-04-22T12:27:22.031Z,30.09
2019-04-22T12:37:29.312Z,30.20
2019-04-22T12:42:21.537Z,29.90
2019-04-22T12:47:20.290Z,30.80
2019-04-22T12:52:26.589Z,31.47
2019-04-22T13:02:18.780Z,30.79
2019-04-22T13:07:17.737Z,28.20
2019-04-22T13:12:17.273Z,28.44
2019-04-22T13:17:18.601Z,30.12
2019-04-22T13:22:18.748Z,28.77
2019-04-22T13:27:17.198Z,26.75
2019-04-22T13:32:16.596Z,27.60
2019-04-22T13:37:16.899Z,26.85
2019-04-22T13:42:19.658Z,26.09
2019-04-22T13:47:32.445Z,24.65
2019-04-22T13:52:50.456Z,27.34
2019-04-22T14:07:10.685Z,25.67
2019-04-22T14:12:13.672Z,27.74
2019-04-22T14:17:11.327Z,25.29
2019-04-22T14:22:09.674Z,29.55
2019-04-22T14:27:22.151Z,25.96
2019-04-22T14:32:17.098Z,26.67
2019-04-22T14:37:11.953Z,28.54
2019-04-22T14:42:28.483Z,28.24
2019-04-22T14:47:34.828Z,26.87
2019-04-22T14:52:24.668Z,27.78
2019-04-22T14:57:07.720Z,27.64
2019-04-22T15:02:07.599Z,27.76
2019-04-22T15:07:05.690Z,26.88
2019-04-22T15:12:14.811Z,26.53
2019-04-22T15:17:06.774Z,26.81
2019-04-22T15:22:05.468Z,26.91
2019-04-22T15:27:04.768Z,25.77
2019-04-22T15:32:05.276Z,25.82
2019-04-22T15:42:09.765Z,24.88
2019-04-22T15:47:04.827Z,25.10
2019-04-22T15:52:05.722Z,25.58
2019-04-22T15:57:02.624Z,26.32
2019-04-22T16:02:02.654Z,26.15
2019-04-22T16:07:03.167Z,24.89
2019-04-22T16:12:15.203Z,27.00
2019-04-22T16:17:01.451Z,24.81
2019-04-22T16:22:05.610Z,25.86
2019-04-22T16:27:00.587Z,25.54
2019-04-22T16:32:01.267Z,26.31
2019-04-22T16:37:00.732Z,26.11
2019-04-22T16:42:00.651Z,24.96
2019-04-22T16:46:59.544Z,27.37
2019-04-22T16:52:00.313Z,27.26
2019-04-22T16:56:59.792Z,27.42
2019-04-22T17:01:58.802Z,26.86
2019-04-22T17:06:57.713Z,26.14
2019-04-22T17:11:57.989Z,26.50
2019-04-22T17:16:56.805Z,26.76
2019-04-22T17:26:56.674Z,28.07
2019-04-22T17:32:03.009Z,29.58
2019-04-22T17:36:55.215Z,30.87
2019-04-22T17:42:05.056Z,30.41
2019-04-22T17:47:02.528Z,31.86
2019-04-22T17:52:16.948Z,32.26
2019-04-22T18:02:09.682Z,32.31
2019-04-22T18:17:11.511Z,32.89
2019-04-22T18:22:06.253Z,33.72
2019-04-22T18:27:33.219Z,32.06
2019-04-22T18:32:07.408Z,32.47
2019-04-22T18:37:11.786Z,32.39
2019-04-22T18:42:10.717Z,33.50
2019-04-22T18:52:08.576Z,33.24
2019-04-22T18:57:09.968Z,33.57
2019-04-22T19:02:02.576Z,33.20
2019-04-22T19:07:24.032Z,33.53
2019-04-22T19:22:07.959Z,33.36
2019-04-22T19:27:18.255Z,33.91
2019-04-22T19:32:18.492Z,34.03
2019-04-22T19:42:12.477Z,33.70
2019-04-22T19:47:24.044Z,34.04
2019-04-22T19:52:18.903Z,34.67
2019-04-22T19:57:08.655Z,35.10
2019-04-22T20:02:04.330Z,34.79
2019-04-22T20:07:11.709Z,35.39
2019-04-22T20:22:09.779Z,35.13
2019-04-22T20:32:05.375Z,35.52
2019-04-22T20:37:06.525Z,35.11
2019-04-22T20:42:12.465Z,34.01
2019-04-22T20:47:07.737Z,34.39
2019-04-22T20:52:17.725Z,34.70
2019-04-22T20:57:04.315Z,34.74
2019-04-22T21:06:58.686Z,35.14
2019-04-22T21:12:02.295Z,36.04
2019-04-22T21:22:07.976Z,35.69
2019-04-22T21:27:10.154Z,36.79
2019-04-22T21:37:07.705Z,38.02
2019-04-22T21:41:58.769Z,37.56
2019-04-22T21:47:12.635Z,37.49
2019-04-22T21:52:09.465Z,38.64
2019-04-22T21:57:13.676Z,38.82
2019-04-22T22:02:07.227Z,39.64
2019-04-22T22:06:53.097Z,40.20
2019-04-22T22:11:57.554Z,40.94
2019-04-22T22:17:00.100Z,40.06
2019-04-22T22:27:04.879Z,41.28
2019-04-22T22:32:04.789Z,41.32
2019-04-22T22:36:50.193Z,41.70
2019-04-22T22:46:52.641Z,42.72
2019-04-22T22:52:26.266Z,43.13
2019-04-22T22:57:02.031Z,44.26
2019-04-22T23:02:01.315Z,45.58
2019-04-22T23:06:58.553Z,45.95
2019-04-22T23:16:48.711Z,47.57
2019-04-22T23:26:53.951Z,50.34
2019-04-22T23:31:44.204Z,50.07
2019-04-22T23:36:52.490Z,51.25
2019-04-22T23:41:50.457Z,49.91
2019-04-22T23:46:46.468Z,49.86
2019-04-22T23:52:04.963Z,50.15
2019-04-22T23:56:49.418Z,50.29
